Time;durP1;ratioP1;P1;durP2;ratioP2;P2;SDS_P1;SDS_P2;PMS_P1;PMS_P2;Temp;Humidity;BMP_temperature;BMP_pressure;BME280_temperature;BME280_humidity;BME280_pressure;Samples;Min_cycle;Max_cycle;Signal;HPM_P1;HPM_P2
2022/01/24 00:02:50;;;;;;;7.03;2.40;;;;;;;5.15;58.13;101707.53;10472311;28;20082;-71
2022/01/24 00:07:52;;;;;;;3.67;2.20;;;;;;;5.25;58.40;101709.16;10472695;28;20147;-71
2022/01/24 00:18:08;;;;;;;5.93;3.10;;;;;;;5.25;58.24;101697.91;10477382;28;20106;-71
2022/01/24 00:28:30;;;;;;;4.38;2.45;;;;;;;5.15;58.84;101686.78;10470829;28;20056;-71
2022/01/24 00:33:32;;;;;;;4.93;3.22;;;;;;;5.24;58.50;101685.84;10471060;28;20159;-71
2022/01/24 00:38:33;;;;;;;4.10;2.40;;;;;;;5.21;58.12;101691.91;10471023;28;20048;-71
2022/01/24 00:43:56;;;;;;;4.88;2.90;;;;;;;5.08;58.02;101689.47;10471207;28;20821;-71
2022/01/24 00:59:00;;;;;;;4.70;2.08;;;;;;;5.19;57.86;101701.44;10469246;28;20051;-71
2022/01/24 01:04:02;;;;;;;3.85;2.00;;;;;;;5.03;58.20;101705.06;10469784;28;20940;-71
2022/01/24 01:19:46;;;;;;;4.28;1.95;;;;;;;4.84;58.33;101705.25;10469462;28;20102;-71
2022/01/24 01:24:52;;;;;;;3.28;1.70;;;;;;;4.74;58.67;101706.19;10467691;28;20455;-71
2022/01/24 01:30:00;;;;;;;3.05;1.60;;;;;;;4.75;58.64;101705.28;10468405;28;20572;-71
2022/01/24 01:35:25;;;;;;;2.78;1.60;;;;;;;4.81;58.42;101705.25;10469002;28;20526;-71
2022/01/24 01:56:29;;;;;;;4.80;1.90;;;;;;;4.83;58.70;101699.19;10468670;28;20269;-71
2022/01/24 02:01:31;;;;;;;3.45;1.85;;;;;;;4.94;58.57;101706.88;10469437;28;20075;-71
2022/01/24 02:06:33;;;;;;;4.95;2.42;;;;;;;5.06;58.58;101702.44;10468011;28;20147;-71
2022/01/24 02:11:35;;;;;;;11.52;6.60;;;;;;;5.09;58.33;101706.72;10465783;28;20412;-71
2022/01/24 02:21:46;;;;;;;8.02;4.55;;;;;;;5.00;58.28;101688.69;10467477;28;20887;-71
2022/01/24 02:26:54;;;;;;;5.95;3.10;;;;;;;4.84;58.31;101684.50;10466956;28;20049;-71
2022/01/24 02:31:56;;;;;;;3.72;2.05;;;;;;;4.87;58.66;101684.47;10467552;28;20062;-71
2022/01/24 02:37:05;;;;;;;3.70;1.92;;;;;;;4.84;58.02;101687.94;10467187;28;20135;-71
2022/01/24 02:52:49;;;;;;;3.58;1.95;;;;;;;4.85;58.45;101668.06;10466333;28;20554;-71
2022/01/24 02:57:51;;;;;;;6.18;2.00;;;;;;;4.83;58.25;101673.25;10467355;28;20226;-71
2022/01/24 03:02:53;;;;;;;4.25;1.90;;;;;;;4.80;58.58;101662.06;10470278;28;20446;-71
2022/01/24 03:07:55;;;;;;;3.75;1.80;;;;;;;4.66;58.32;101650.06;10475989;28;20068;-71
2022/01/24 03:13:17;;;;;;;3.22;1.90;;;;;;;4.66;58.51;101651.81;10473668;28;20080;-71
2022/01/24 03:18:19;;;;;;;6.45;2.28;;;;;;;4.65;58.57;101648.38;10481636;28;20087;-71
2022/01/24 03:23:24;;;;;;;3.00;2.10;;;;;;;4.71;58.38;101634.50;10481969;28;20072;-71
2022/01/24 03:28:25;;;;;;;4.50;1.98;;;;;;;4.76;58.32;101629.28;10478700;28;20052;-71
2022/01/24 03:33:27;;;;;;;2.80;2.10;;;;;;;4.71;58.30;101629.31;10479384;28;20385;-71
2022/01/24 03:38:29;;;;;;;3.42;1.70;;;;;;;4.63;58.74;101619.03;10480296;28;20946;-71
2022/01/24 03:43:30;;;;;;;5.43;1.70;;;;;;;4.51;58.95;101619.13;10481101;28;20044;-71
2022/01/24 03:48:47;;;;;;;4.40;1.80;;;;;;;4.58;58.84;101620.78;10480830;28;20054;-71
2022/01/24 03:53:50;;;;;;;2.67;1.80;;;;;;;4.67;58.75;101618.13;10483962;28;20066;-71
2022/01/24 03:58:52;;;;;;;2.70;1.85;;;;;;;4.72;58.75;101615.47;10496695;28;20842;-71
2022/01/24 04:03:54;;;;;;;3.15;2.00;;;;;;;4.79;58.73;101616.28;10476374;28;20049;-71
2022/01/24 04:08:56;;;;;;;3.17;2.20;;;;;;;4.72;58.79;101601.66;10474649;28;20112;-71
2022/01/24 04:14:10;;;;;;;3.13;1.90;;;;;;;4.73;58.64;101601.66;10471688;28;20123;-71
2022/01/24 04:24:32;;;;;;;4.25;2.42;;;;;;;4.65;58.95;101619.88;10472043;28;20052;-71
2022/01/24 04:29:34;;;;;;;3.42;2.20;;;;;;;4.70;59.06;101614.63;10471810;28;20152;-71
2022/01/24 04:34:36;;;;;;;3.20;2.10;;;;;;;4.76;59.22;101614.56;10471360;28;20040;-71
2022/01/24 04:39:38;;;;;;;3.28;2.05;;;;;;;4.84;59.31;101612.75;10471193;28;20424;-71
2022/01/24 04:44:52;;;;;;;4.28;2.10;;;;;;;4.92;59.11;101608.38;10472361;28;20040;-72
2022/01/24 04:55:15;;;;;;;3.95;1.92;;;;;;;4.77;59.18;101615.44;10474884;28;20072;-71
2022/01/24 05:00:17;;;;;;;3.63;2.10;;;;;;;4.83;59.13;101620.56;10472375;28;20123;-71
2022/01/24 05:05:21;;;;;;;4.25;2.10;;;;;;;4.78;59.14;101625.78;10470959;28;20519;-72
2022/01/24 05:10:32;;;;;;;3.80;2.53;;;;;;;4.73;59.16;101619.78;10501344;28;20048;-71
2022/01/24 05:26:15;;;;;;;3.42;2.00;;;;;;;4.47;59.93;101629.53;10470207;28;20057;-71
2022/01/24 05:31:17;;;;;;;3.25;2.08;;;;;;;4.48;60.05;101634.69;10468188;28;20060;-71
2022/01/24 05:36:19;;;;;;;2.83;1.95;;;;;;;4.54;59.69;101629.44;10478558;28;20045;-71
2022/01/24 05:41:20;;;;;;;3.65;2.30;;;;;;;4.52;59.90;101619.97;10469459;28;20055;-71
2022/01/24 05:46:22;;;;;;;2.75;1.77;;;;;;;4.45;59.81;101618.31;10470200;28;20469;-71
2022/01/24 05:51:24;;;;;;;2.40;1.63;;;;;;;4.45;59.85;101620.91;10468665;28;20052;-70
2022/01/24 05:56:26;;;;;;;3.05;2.05;;;;;;;4.55;59.77;101626.00;10486377;28;20565;-71
2022/01/24 06:01:28;;;;;;;4.65;2.22;;;;;;;4.47;60.16;101627.81;10468607;28;20416;-70
2022/01/24 06:06:30;;;;;;;3.47;1.80;;;;;;;4.42;59.94;101624.38;10468734;28;20061;-71
2022/01/24 06:11:31;;;;;;;4.00;2.65;;;;;;;4.41;59.79;101632.16;10466943;28;20048;-70
2022/01/24 06:16:33;;;;;;;4.40;2.63;;;;;;;4.37;60.02;101631.31;10485509;28;20054;-71
2022/01/24 06:21:35;;;;;;;3.58;2.50;;;;;;;4.32;60.23;101645.16;10468214;28;20068;-71
2022/01/24 06:26:38;;;;;;;4.15;1.83;;;;;;;4.29;60.40;101638.28;10468686;28;20408;-70
2022/01/24 06:31:39;;;;;;;4.43;2.40;;;;;;;4.28;60.63;101646.06;10458816;28;20056;-70
2022/01/24 06:36:41;;;;;;;4.30;3.08;;;;;;;4.48;60.77;101652.81;10475186;28;20135;-63
2022/01/24 06:41:51;;;;;;;3.60;2.50;;;;;;;4.72;60.56;101656.94;10488826;28;20098;-63
2022/01/24 06:46:52;;;;;;;4.95;2.33;;;;;;;4.39;60.41;101660.63;10468319;28;20045;-64
2022/01/24 06:51:54;;;;;;;3.90;2.30;;;;;;;4.49;60.84;101658.88;10492841;28;20047;-65
2022/01/24 06:56:56;;;;;;;7.22;1.95;;;;;;;4.60;60.60;101655.31;10485929;28;20052;-65
2022/01/24 07:01:57;;;;;;;4.03;1.90;;;;;;;5.14;59.85;101663.47;10476137;28;20133;-67
2022/01/24 07:06:59;;;;;;;3.28;2.08;;;;;;;5.18;59.02;101655.66;10486119;28;20084;-66
2022/01/24 07:12:02;;;;;;;2.88;2.00;;;;;;;5.32;59.42;101655.50;10475469;28;20051;-66
2022/01/24 07:17:28;;;;;;;3.65;2.50;;;;;;;5.24;58.73;101653.00;10475068;28;20137;-65
2022/01/24 07:22:25;;;;;;;4.38;2.28;;;;;;;5.18;59.54;101654.78;10476785;28;20791;-63
2022/01/24 07:27:27;;;;;;;3.88;2.33;;;;;;;5.24;59.90;101662.50;10474437;28;20060;-65
2022/01/24 07:32:30;;;;;;;4.88;2.25;;;;;;;5.43;59.61;101672.66;10474413;28;20496;-67
2022/01/24 07:37:32;;;;;;;3.55;2.15;;;;;;;5.46;59.10;101666.56;10474845;28;20148;-66
2022/01/24 07:47:54;;;;;;;5.20;2.70;;;;;;;5.28;60.15;101670.25;10503623;28;20885;-61
2022/01/24 07:52:59;;;;;;;3.22;2.00;;;;;;;5.28;59.15;101671.97;10484724;28;20053;-64
2022/01/24 07:58:01;;;;;;;5.68;2.03;;;;;;;5.30;59.53;101673.69;10473257;28;20094;-65
2022/01/24 08:03:03;;;;;;;4.07;2.30;;;;;;;5.27;59.43;101678.00;10472629;28;20083;-66
2022/01/24 08:08:05;;;;;;;4.95;2.58;;;;;;;5.25;59.67;101677.16;10472283;28;20462;-66
2022/01/24 08:13:07;;;;;;;4.47;2.78;;;;;;;5.22;59.25;101666.84;10473352;28;20055;-66
2022/01/24 08:18:09;;;;;;;4.35;2.10;;;;;;;4.96;59.45;101664.53;10472517;28;20044;-66
2022/01/24 08:23:12;;;;;;;3.03;2.00;;;;;;;4.98;58.86;101661.91;10471596;28;20047;-66
2022/01/24 08:28:14;;;;;;;5.72;2.17;;;;;;;4.96;59.68;101668.84;10473065;28;20140;-66
2022/01/24 08:33:15;;;;;;;2.63;1.80;;;;;;;5.02;59.25;101666.19;10473250;28;20049;-66
2022/01/24 08:38:17;;;;;;;2.58;1.70;;;;;;;4.95;59.91;101669.69;10472119;28;20155;-66
2022/01/24 08:43:36;;;;;;;3.35;1.60;;;;;;;5.05;59.16;101671.31;10472056;28;20048;-65
2022/01/24 08:48:38;;;;;;;3.58;2.08;;;;;;;4.98;59.11;101672.28;10471494;28;20106;-65
2022/01/24 08:53:40;;;;;;;3.58;1.80;;;;;;;4.84;59.43;101685.34;10472252;28;20098;-66
2022/01/24 08:58:42;;;;;;;4.53;2.60;;;;;;;4.87;59.71;101684.47;10471001;28;20727;-65
2022/01/24 09:03:43;;;;;;;4.53;2.50;;;;;;;4.84;59.42;101693.13;10471025;28;20131;-65
2022/01/24 09:08:45;;;;;;;5.80;2.70;;;;;;;4.74;59.71;101695.81;10469992;28;20082;-65
2022/01/24 09:13:48;;;;;;;4.28;2.38;;;;;;;4.63;59.58;101701.94;10469759;28;20055;-65
2022/01/24 09:18:50;;;;;;;4.68;2.53;;;;;;;4.59;59.79;101699.38;10470885;28;20049;-65
2022/01/24 09:23:53;;;;;;;2.65;1.70;;;;;;;4.79;59.52;101696.63;10470619;28;20475;-65
2022/01/24 09:28:55;;;;;;;3.63;2.00;;;;;;;4.84;59.43;101698.28;10469605;28;20807;-65
2022/01/24 09:33:57;;;;;;;3.13;2.10;;;;;;;4.94;59.39;101697.38;10471939;28;20135;-65
2022/01/24 09:38:59;;;;;;;3.75;2.30;;;;;;;4.95;59.39;101691.31;10468963;28;20458;-65
2022/01/24 09:44:00;;;;;;;3.30;2.17;;;;;;;5.15;58.80;101698.88;10482619;28;20041;-65
2022/01/24 09:49:04;;;;;;;4.03;2.60;;;;;;;5.06;58.79;101697.25;10468187;28;20053;-65
2022/01/24 09:54:08;;;;;;;3.70;2.55;;;;;;;4.95;59.27;101696.50;10466365;28;20052;-64
2022/01/24 09:59:10;;;;;;;4.07;2.30;;;;;;;5.00;59.12;101691.28;10465393;28;20052;-64
2022/01/24 10:04:17;;;;;;;3.58;2.20;;;;;;;5.03;58.98;101686.03;10501393;28;20051;-64
2022/01/24 10:09:27;;;;;;;4.20;2.35;;;;;;;5.08;58.93;101694.66;10501626;28;20355;-63
2022/01/24 10:20:20;;;;;;;4.80;2.40;;;;;;;4.99;58.98;101687.81;10489681;28;20055;-64
2022/01/24 10:25:22;;;;;;;4.20;3.08;;;;;;;5.25;58.60;101685.81;10483804;28;20047;-64
2022/01/24 10:30:26;;;;;;;4.00;2.70;;;;;;;5.42;58.23;101694.28;10487219;28;20059;-63
2022/01/24 10:35:31;;;;;;;3.38;2.55;;;;;;;5.49;57.64;101695.09;10491631;28;20054;-62
2022/01/24 10:40:49;;;;;;;3.58;1.98;;;;;;;5.42;58.38;101690.84;10487462;28;20745;-62
2022/01/24 10:45:53;;;;;;;3.33;2.13;;;;;;;5.41;58.43;101686.53;10484043;28;20075;-64
2022/01/24 10:51:08;;;;;;;2.90;2.00;;;;;;;5.28;57.87;101682.34;10480133;28;20463;-65
2022/01/24 10:56:33;;;;;;;2.78;2.00;;;;;;;5.38;58.03;101679.63;10488731;28;20088;-65
2022/01/24 11:01:35;;;;;;;3.45;1.90;;;;;;;5.60;58.10;101671.59;10486466;28;20144;-67
2022/01/24 11:06:43;;;;;;;3.80;1.90;;;;;;;5.52;57.66;101667.38;10476072;28;20040;-64
2022/01/24 11:11:46;;;;;;;4.95;2.10;;;;;;;5.74;57.13;101667.97;10491421;28;20063;-64
2022/01/24 11:16:49;;;;;;;2.90;2.05;;;;;;;5.65;57.21;101662.91;10511327;28;20054;-64
2022/01/24 11:21:53;;;;;;;4.85;2.20;;;;;;;5.47;56.93;101663.94;10493755;28;20060;-67
2022/01/24 11:26:55;;;;;;;3.95;2.40;;;;;;;5.51;57.05;101668.22;10469391;28;20051;-65
2022/01/24 11:32:20;;;;;;;4.82;2.45;;;;;;;5.46;57.28;101651.00;10467703;28;20083;-67
2022/01/24 11:37:35;;;;;;;8.90;2.58;;;;;;;5.69;56.41;101643.81;10465248;28;20044;-67
2022/01/24 11:42:37;;;;;;;5.30;2.50;;;;;;;5.72;57.11;101646.34;10478236;28;20415;-67
2022/01/24 11:48:18;;;;;;;4.25;2.65;;;;;;;5.68;56.56;101644.66;10474576;28;20063;-67
2022/01/24 11:53:28;;;;;;;3.80;2.43;;;;;;;5.92;56.44;101646.13;10473507;28;20147;-67
2022/01/24 11:58:32;;;;;;;4.80;2.75;;;;;;;5.98;56.44;101649.47;10474143;28;20515;-66
2022/01/24 12:03:49;;;;;;;4.65;2.20;;;;;;;5.92;55.02;101638.31;10473858;28;20512;-67
2022/01/24 12:09:02;;;;;;;5.63;2.80;;;;;;;5.81;56.15;101632.41;10473211;28;20416;-67
2022/01/24 12:14:14;;;;;;;4.28;2.40;;;;;;;5.78;55.48;101632.47;10473428;28;20513;-67
2022/01/24 12:19:28;;;;;;;6.75;2.55;;;;;;;5.86;56.12;101621.06;10474147;28;20127;-67
2022/01/24 12:24:43;;;;;;;6.68;2.35;;;;;;;5.94;56.20;101611.44;10497870;28;20407;-67
2022/01/24 12:29:45;;;;;;;3.92;2.40;;;;;;;6.03;56.21;101611.31;10500325;28;20064;-67
2022/01/24 12:34:47;;;;;;;6.55;2.50;;;;;;;6.03;56.05;101598.31;10514296;28;20115;-67
2022/01/24 12:40:02;;;;;;;4.88;2.40;;;;;;;5.81;55.03;101607.31;10481738;28;20515;-67
2022/01/24 12:50:51;;;;;;;3.95;2.60;;;;;;;5.83;56.24;101595.16;10471445;28;20516;-67
2022/01/24 12:56:06;;;;;;;5.38;2.40;;;;;;;5.97;56.34;101595.81;10471667;28;20537;-67
2022/01/24 13:01:31;;;;;;;5.55;2.60;;;;;;;6.01;55.72;101597.50;10471692;28;20560;-66
2022/01/24 13:06:36;;;;;;;4.60;2.50;;;;;;;6.04;55.51;101589.63;10499266;28;20048;-67
2022/01/24 13:11:49;;;;;;;4.50;2.60;;;;;;;6.11;54.43;101586.06;10510701;28;20058;-67
2022/01/24 13:22:25;;;;;;;6.80;2.75;;;;;;;6.17;55.53;101585.13;10499703;28;20492;-67
2022/01/24 13:27:44;;;;;;;10.30;3.00;;;;;;;6.14;54.76;101575.63;10509331;28;20565;-67
2022/01/24 13:32:50;;;;;;;7.93;3.00;;;;;;;6.06;54.50;101582.69;10511435;28;20052;-67
2022/01/24 13:37:55;;;;;;;6.22;2.83;;;;;;;6.15;54.90;101572.16;10476914;28;20419;-67
2022/01/24 13:42:58;;;;;;;5.97;3.08;;;;;;;6.23;55.18;101572.03;10470217;28;20491;-67
2022/01/24 13:48:01;;;;;;;7.63;3.30;;;;;;;6.12;54.59;101568.75;10468997;28;20051;-67
2022/01/24 13:53:03;;;;;;;9.30;3.28;;;;;;;6.13;55.08;101571.31;10469959;28;20086;-66
2022/01/24 13:58:05;;;;;;;9.95;3.00;;;;;;;6.16;54.84;101576.50;10469004;28;20133;-67
2022/01/24 14:03:09;;;;;;;6.30;3.25;;;;;;;6.25;54.43;101576.38;10468835;28;20048;-67
2022/01/24 14:08:24;;;;;;;6.65;3.50;;;;;;;6.06;54.48;101577.47;10468389;28;20048;-67
2022/01/24 14:13:26;;;;;;;6.05;3.28;;;;;;;5.91;54.26;101582.94;10469177;28;20056;-67
2022/01/24 14:18:31;;;;;;;8.15;3.78;;;;;;;6.11;54.35;101582.63;10469007;28;20134;-67
2022/01/24 14:23:38;;;;;;;6.82;3.30;;;;;;;6.04;54.52;101578.41;10484127;28;20535;-67
2022/01/24 14:28:40;;;;;;;7.15;3.60;;;;;;;6.06;55.01;101582.69;10468739;28;20444;-67
2022/01/24 14:33:45;;;;;;;5.97;3.60;;;;;;;6.04;54.57;101574.06;10467305;28;20052;-67
2022/01/24 14:38:56;;;;;;;7.45;3.90;;;;;;;5.90;55.24;101562.19;10507932;28;20048;-67
2022/01/24 14:49:24;;;;;;;8.63;3.70;;;;;;;5.91;55.14;101561.28;10509122;28;20086;-67
2022/01/24 14:54:28;;;;;;;8.75;3.92;;;;;;;6.02;55.07;101560.22;10491056;28;20103;-67
2022/01/24 14:59:31;;;;;;;8.18;3.63;;;;;;;6.11;55.16;101567.03;10467441;28;20053;-65
2022/01/24 15:04:33;;;;;;;6.30;4.00;;;;;;;5.89;55.42;101582.09;10494177;28;20767;-67
2022/01/24 15:09:35;;;;;;;7.10;3.95;;;;;;;5.92;55.57;101573.41;10472414;28;20143;-67
2022/01/24 15:14:43;;;;;;;8.98;4.25;;;;;;;5.91;55.01;101580.34;10475589;28;20049;-67
2022/01/24 15:30:19;;;;;;;13.70;4.30;;;;;;;5.84;55.34;101577.84;10509185;28;20145;-67
2022/01/24 15:35:30;;;;;;;8.90;4.45;;;;;;;5.75;55.41;101576.25;10473864;28;20048;-67
2022/01/24 15:40:34;;;;;;;9.32;4.80;;;;;;;5.68;55.99;101569.41;10475089;28;20048;-67
2022/01/24 15:46:00;;;;;;;9.38;4.97;;;;;;;5.76;55.65;101570.16;10474173;28;20390;-66
2022/01/24 15:51:02;;;;;;;8.68;4.63;;;;;;;5.68;55.42;101569.41;10474759;28;20056;-67
2022/01/24 16:01:14;;;;;;;;;;;;;;;5.40;56.45;101568.06;10474555;28;20143;-67
2022/01/24 16:06:16;;;;;;;7.63;4.40;;;;;;;5.66;55.67;101571.16;10472045;28;20346;-67
2022/01/24 16:11:20;;;;;;;9.40;5.03;;;;;;;5.54;56.04;101569.59;10473866;28;20083;-67
2022/01/24 16:16:22;;;;;;;6.75;4.20;;;;;;;5.52;56.60;101578.28;10473011;28;20076;-67
2022/01/24 16:26:25;;;;;;;7.53;4.50;;;;;;;5.48;56.69;101576.59;10472301;28;20131;-67
2022/01/24 16:31:27;;;;;;;11.70;6.68;;;;;;;5.38;56.35;101568.06;10472035;28;20087;-67
2022/01/24 16:36:28;;;;;;;11.13;6.50;;;;;;;5.19;56.58;101574.34;10471164;28;20056;-67
2022/01/24 16:41:54;;;;;;;8.30;4.22;;;;;;;5.16;56.86;101560.56;10472340;28;20045;-67
2022/01/24 16:47:29;;;;;;;7.30;4.63;;;;;;;5.07;57.00;101558.94;10490337;28;20151;-67
2022/01/24 16:52:25;;;;;;;10.25;5.35;;;;;;;5.10;57.10;101568.44;10467798;28;20075;-67
2022/01/24 16:57:27;;;;;;;6.22;4.45;;;;;;;4.96;57.01;101572.91;10486482;28;20072;-67
2022/01/24 17:02:28;;;;;;;7.35;4.18;;;;;;;4.90;57.33;101576.44;10467967;28;20040;-67
2022/01/24 17:07:30;;;;;;;7.43;4.70;;;;;;;5.06;57.17;101577.13;10467416;28;20070;-67
2022/01/24 17:12:32;;;;;;;7.90;5.13;;;;;;;5.07;57.87;101578.81;10468626;28;20546;-67
2022/01/24 17:17:34;;;;;;;10.32;5.80;;;;;;;5.02;57.96;101570.25;10469801;28;20044;-67
2022/01/24 17:22:36;;;;;;;9.48;5.50;;;;;;;5.04;57.80;101582.31;10468756;28;20116;-67
2022/01/24 17:27:38;;;;;;;9.80;5.57;;;;;;;4.99;57.97;101578.91;10466384;28;20136;-67
2022/01/24 17:32:41;;;;;;;9.00;5.05;;;;;;;4.98;57.63;101585.00;10469132;28;20052;-67
2022/01/24 17:37:43;;;;;;;6.90;5.57;;;;;;;4.91;58.01;101588.50;10468093;28;20159;-67
2022/01/24 17:42:45;;;;;;;7.50;5.72;;;;;;;4.86;58.52;101579.91;10468839;28;20495;-67
2022/01/24 17:48:00;;;;;;;7.25;5.07;;;;;;;4.86;58.28;101579.06;10467908;28;20070;-67
2022/01/24 17:53:02;;;;;;;6.43;4.97;;;;;;;4.91;58.30;101588.50;10467333;28;20055;-67
2022/01/24 17:58:03;;;;;;;5.47;4.60;;;;;;;4.85;57.91;101585.13;10468248;28;20387;-67
2022/01/24 18:03:05;;;;;;;8.23;5.72;;;;;;;4.74;57.92;101592.16;10469209;28;20053;-67
2022/01/24 18:08:09;;;;;;;7.88;5.97;;;;;;;4.67;58.09;101597.41;10468779;28;20055;-67
2022/01/24 18:13:12;;;;;;;8.73;6.82;;;;;;;4.77;58.03;101592.97;10467397;28;20048;-67
2022/01/24 18:18:13;;;;;;;10.07;7.47;;;;;;;4.74;58.08;101592.97;10468262;28;20051;-67
2022/01/24 18:23:15;;;;;;;9.23;6.07;;;;;;;4.67;58.12;101596.53;10468508;28;20518;-67
2022/01/24 18:28:17;;;;;;;7.10;6.20;;;;;;;4.82;58.30;101603.31;10465221;28;20052;-67
2022/01/24 18:33:24;;;;;;;8.80;6.70;;;;;;;4.99;58.15;101602.25;10465935;28;20098;-67
2022/01/24 18:38:27;;;;;;;8.80;6.97;;;;;;;5.03;57.93;101603.06;10461896;28;20132;-67
2022/01/24 18:43:33;;;;;;;10.23;7.50;;;;;;;4.78;58.12;101606.78;10462961;28;20186;-67
2022/01/24 18:48:36;;;;;;;10.48;7.05;;;;;;;4.72;58.07;101602.50;10475373;28;20084;-68
2022/01/24 18:53:37;;;;;;;10.73;6.30;;;;;;;4.85;58.26;101592.88;10472380;28;20397;-68
2022/01/24 18:58:39;;;;;;;8.10;6.28;;;;;;;4.89;58.23;101592.84;10471666;28;20131;-67
2022/01/24 19:03:41;;;;;;;10.63;8.63;;;;;;;4.91;57.89;101588.50;10474541;28;20048;-68
2022/01/24 19:08:43;;;;;;;9.02;6.80;;;;;;;4.81;58.23;101592.06;10474838;28;20136;-67
2022/01/24 19:13:44;;;;;;;8.45;6.18;;;;;;;4.78;58.23;101607.63;10472375;28;20520;-67
2022/01/24 19:18:58;;;;;;;9.00;6.07;;;;;;;4.74;58.35;101612.88;10495696;28;20048;-67
2022/01/24 19:24:00;;;;;;;8.50;5.78;;;;;;;4.72;58.31;101612.03;10484184;28;20137;-67
2022/01/24 19:29:03;;;;;;;9.57;7.32;;;;;;;4.75;58.19;101612.00;10473345;28;20428;-68
2022/01/24 19:34:05;;;;;;;12.88;7.60;;;;;;;4.79;57.86;101614.56;10473043;28;20196;-68
2022/01/24 19:39:10;;;;;;;15.65;7.57;;;;;;;4.70;58.33;101612.91;10468606;28;20500;-67
2022/01/24 19:44:11;;;;;;;15.55;9.00;;;;;;;4.78;58.01;101624.94;10472750;28;20062;-68
2022/01/24 19:49:13;;;;;;;14.60;8.68;;;;;;;4.67;58.31;101623.31;10478241;28;20135;-67
2022/01/24 19:54:18;;;;;;;9.93;7.40;;;;;;;4.65;58.11;101637.13;10487034;28;20539;-67
2022/01/24 19:59:33;;;;;;;9.57;8.13;;;;;;;4.78;58.43;101632.72;10472357;28;20143;-67
2022/01/24 20:04:35;;;;;;;11.65;7.65;;;;;;;4.76;58.34;101624.94;10472447;28;20056;-67
2022/01/24 20:09:37;;;;;;;10.48;7.90;;;;;;;4.84;58.66;101640.44;10472656;28;20062;-68
2022/01/24 20:14:38;;;;;;;11.65;8.63;;;;;;;4.94;58.70;101629.97;10471644;28;20044;-68
2022/01/24 20:19:40;;;;;;;8.63;7.05;;;;;;;4.92;58.52;101629.13;10467540;28;20408;-67
2022/01/24 20:24:43;;;;;;;9.95;7.55;;;;;;;4.94;58.29;101626.50;10480319;28;20469;-67
2022/01/24 20:29:45;;;;;;;12.80;8.30;;;;;;;5.00;58.18;101636.81;10476708;28;20324;-68
2022/01/24 20:34:47;;;;;;;10.55;8.60;;;;;;;4.94;57.91;101629.09;10485248;28;20498;-67
2022/01/24 20:39:48;;;;;;;14.13;9.10;;;;;;;5.01;58.23;101625.56;10471603;28;20162;-68
2022/01/24 20:44:50;;;;;;;12.80;9.23;;;;;;;4.91;58.15;101629.13;10470661;28;20120;-67
2022/01/24 20:49:52;;;;;;;13.02;9.45;;;;;;;4.90;58.02;101637.78;10473005;28;20492;-68
2022/01/24 20:54:54;;;;;;;15.20;9.23;;;;;;;4.80;58.25;101641.34;10499449;28;20131;-68
2022/01/24 20:59:56;;;;;;;11.63;9.18;;;;;;;4.71;58.40;101637.09;10470715;28;21445;-68
2022/01/24 21:04:57;;;;;;;11.95;8.18;;;;;;;4.55;58.53;101636.38;10469576;28;20049;-68
2022/01/24 21:10:04;;;;;;;13.43;7.82;;;;;;;4.51;58.34;101637.25;10469631;28;20555;-67
2022/01/24 21:15:08;;;;;;;13.55;8.82;;;;;;;4.66;58.29;101629.34;10477327;28;20056;-68
2022/01/24 21:20:11;;;;;;;16.20;9.90;;;;;;;4.66;58.42;101638.84;10474943;28;20501;-68
2022/01/24 21:25:13;;;;;;;11.52;10.20;;;;;;;4.65;58.57;101632.81;10468971;28;20162;-68
2022/01/24 21:30:15;;;;;;;12.05;8.85;;;;;;;4.67;58.59;101627.63;10467806;28;20060;-68
2022/01/24 21:35:19;;;;;;;15.68;7.90;;;;;;;4.68;58.11;101619.81;10471596;28;20048;-68
2022/01/24 21:40:22;;;;;;;13.38;9.88;;;;;;;4.71;58.56;101624.13;10465243;28;20048;-68
2022/01/24 21:45:24;;;;;;;13.48;8.40;;;;;;;4.73;58.65;101622.38;10474608;28;20161;-68
2022/01/24 21:50:27;;;;;;;12.02;9.90;;;;;;;4.84;58.40;101617.09;10509611;28;20139;-68
2022/01/24 21:55:32;;;;;;;11.23;9.65;;;;;;;4.71;58.62;101616.34;10498773;28;20476;-68
2022/01/24 22:00:36;;;;;;;11.65;9.05;;;;;;;4.54;58.70;101606.13;10467920;28;20139;-68
2022/01/24 22:05:38;;;;;;;11.95;9.95;;;;;;;4.60;58.54;101613.84;10469219;28;20057;-68
2022/01/24 22:10:40;;;;;;;11.75;8.68;;;;;;;4.58;58.33;101609.56;10468860;28;20420;-68
2022/01/24 22:15:42;;;;;;;13.35;9.70;;;;;;;4.41;58.73;101612.28;10483264;28;20156;-67
2022/01/24 22:20:44;;;;;;;17.77;10.57;;;;;;;4.48;59.11;101603.59;10468727;28;20049;-67
2022/01/24 22:25:50;;;;;;;16.20;10.43;;;;;;;4.64;58.86;101600.00;10495941;28;20055;-67
2022/01/24 22:30:52;;;;;;;13.77;11.38;;;;;;;4.69;58.54;101600.84;10467904;28;20473;-67
2022/01/24 22:35:56;;;;;;;15.70;11.15;;;;;;;4.60;59.10;101600.03;10468800;28;20136;-67
2022/01/24 22:41:08;;;;;;;16.77;11.98;;;;;;;4.46;58.94;101594.97;10469461;28;20326;-70
2022/01/24 22:46:13;;;;;;;12.75;10.60;;;;;;;4.35;59.00;101590.78;10473114;28;20045;-70
2022/01/24 22:51:16;;;;;;;17.00;12.25;;;;;;;4.37;59.26;101584.69;10468315;28;20052;-70
2022/01/24 22:56:19;;;;;;;18.73;14.50;;;;;;;4.27;59.28;101583.03;10471555;28;20127;-69
2022/01/24 23:01:23;;;;;;;22.67;15.68;;;;;;;4.29;59.33;101593.41;10471304;28;20048;-70
2022/01/24 23:06:25;;;;;;;19.85;13.98;;;;;;;4.26;59.80;101588.22;10468273;28;20044;-69
2022/01/24 23:11:26;;;;;;;16.92;14.02;;;;;;;4.32;59.58;101590.78;10468661;28;20422;-70
2022/01/24 23:21:57;;;;;;;16.13;11.77;;;;;;;4.35;59.81;101593.34;10465877;28;20515;-70
2022/01/24 23:27:09;;;;;;;13.75;10.95;;;;;;;4.41;59.40;101588.97;10466644;28;20052;-70
2022/01/24 23:32:19;;;;;;;16.17;12.27;;;;;;;4.46;58.97;101581.16;10469782;28;20062;-70
2022/01/24 23:42:45;;;;;;;17.30;13.38;;;;;;;4.20;60.20;101589.16;10473579;28;20481;-70
2022/01/24 23:47:47;;;;;;;16.27;11.55;;;;;;;4.28;59.82;101587.34;10472478;28;20050;-70
2022/01/24 23:52:49;;;;;;;18.60;12.35;;;;;;;4.40;59.68;101582.06;10473884;28;20044;-70
2022/01/24 23:57:55;;;;;;;18.65;11.90;;;;;;;4.33;59.30;101587.34;10476099;28;20458;-70
